Time;durP1;ratioP1;P1;durP2;ratioP2;P2;SDS_P1;SDS_P2;PMS_P1;PMS_P2;Temp;Humidity;BMP_temperature;BMP_pressure;BME280_temperature;BME280_humidity;BME280_pressure;Samples;Min_cycle;Max_cycle;Signal;HPM_P1;HPM_P2
2022/11/04 00:02:06;;;;;;;13.20;7.80;;;;;;;8.59;99.11;99608.43;102117;1297;139212;-58
2022/11/04 00:04:33;;;;;;;18.10;10.00;;;;;;;8.57;99.14;99608.77;102058;1304;25300;-57
2022/11/04 00:07:00;;;;;;;;;;;;;;;8.55;99.10;99610.47;102025;1290;138783;-57
2022/11/04 00:09:28;;;;;;;13.20;9.00;;;;;;;8.52;99.12;99612.04;102246;1312;22480;-57
2022/11/04 00:14:41;;;;;;;11.30;8.10;;;;;;;8.48;99.19;99613.63;102006;1299;138453;-57
2022/11/04 00:17:23;;;;;;;;;;;;;;;8.49;99.33;99607.93;102205;1284;24558;-57
2022/11/04 00:33:47;;;;;;;12.30;6.50;;;;;;;8.63;99.36;99600.48;106519;1297;22330;-58
2022/11/04 00:36:14;;;;;;;12.10;7.60;;;;;;;8.66;99.43;99601.71;106503;1305;23563;-57
2022/11/04 00:38:41;;;;;;;14.30;8.10;;;;;;;8.70;99.36;99601.89;106423;1305;138249;-58
2022/11/04 00:41:24;;;;;;;;;;;;;;;8.73;99.22;99600.16;106624;1305;22484;-58
2022/11/04 00:43:53;;;;;;;11.10;7.20;;;;;;;8.74;99.16;99595.84;106470;1303;124186;-58
2022/11/04 00:46:20;;;;;;;10.40;6.40;;;;;;;8.74;99.11;99598.84;106601;1291;22161;-58
2022/11/04 00:48:47;;;;;;;;;;;;;;;8.74;98.94;99598.84;106527;1297;138198;-58
2022/11/04 00:51:14;;;;;;;10.10;6.30;;;;;;;8.75;98.85;99600.00;106554;1305;22213;-59
2022/11/04 00:53:40;;;;;;;12.20;8.10;;;;;;;8.75;98.83;99596.57;106548;1305;22142;-58
2022/11/04 00:56:07;;;;;;;;;;;;;;;8.74;98.64;99595.41;106476;1305;138990;-58
2022/11/04 00:58:34;;;;;;;14.70;7.10;;;;;;;8.73;98.47;99593.48;106801;1302;22349;-58
2022/11/04 01:01:05;;;;;;;;;;;;;;;8.71;98.55;99595.78;106648;1299;138882;-58
2022/11/04 01:03:32;;;;;;;13.60;6.90;;;;;;;8.70;98.42;99594.46;106788;1302;22133;-58
2022/11/04 01:05:59;;;;;;;;;;;;;;;8.68;98.23;99589.86;106808;1302;22344;-58
2022/11/04 01:08:25;;;;;;;14.00;7.60;;;;;;;8.66;98.48;99584.82;106691;1297;124362;-58
2022/11/04 01:10:52;;;;;;;11.10;8.20;;;;;;;8.69;98.44;99588.24;106782;1302;22216;-58
2022/11/04 01:13:19;;;;;;;16.80;7.70;;;;;;;8.69;98.30;99585.33;106695;1305;138458;-57
2022/11/04 01:15:46;;;;;;;11.10;6.90;;;;;;;8.70;98.32;99585.11;106823;1302;23367;-58
2022/11/04 01:18:12;;;;;;;;;;;;;;;8.72;98.39;99583.30;106795;1301;22359;-58
2022/11/04 01:20:39;;;;;;;12.40;7.20;;;;;;;8.72;98.31;99584.25;106710;1302;124250;-58
2022/11/04 01:23:06;;;;;;;;;;;;;;;8.73;98.28;99581.98;106798;1302;22401;-58
2022/11/04 01:25:32;;;;;;;13.60;6.80;;;;;;;8.73;98.29;99582.48;106825;1290;124190;-58
2022/11/04 01:27:59;;;;;;;;;;;;;;;8.74;98.22;99581.45;106807;1294;22362;-59
2022/11/04 01:30:26;;;;;;;13.80;6.90;;;;;;;8.73;98.02;99577.73;106776;1302;23064;-59
2022/11/04 01:32:53;;;;;;;10.70;7.50;;;;;;;8.71;97.98;99580.73;106683;1302;137906;-58
2022/11/04 01:35:19;;;;;;;;;;;;;;;8.69;97.80;99580.27;106821;1293;22344;-58
2022/11/04 01:37:46;;;;;;;13.70;6.80;;;;;;;8.68;97.75;99579.27;106699;1294;125146;-58
2022/11/04 01:40:13;;;;;;;9.40;6.30;;;;;;;8.65;97.61;99583.14;106822;1289;22385;-58
2022/11/04 01:42:40;;;;;;;;;;;;;;;8.62;97.52;99584.05;106718;1302;137825;-58
2022/11/04 01:45:13;;;;;;;13.10;6.20;;;;;;;8.60;97.64;99583.47;106788;1302;22361;-49
2022/11/04 01:47:46;;;;;;;10.00;6.30;;;;;;;8.57;97.58;99586.02;106795;1302;22140;-58
2022/11/04 01:50:20;;;;;;;16.30;7.70;;;;;;;8.55;97.50;99587.61;106617;1297;138830;-58
2022/11/04 01:53:06;;;;;;;11.40;7.20;;;;;;;8.54;97.41;99590.73;106732;1302;22154;-58
2022/11/04 01:55:35;;;;;;;12.00;6.80;;;;;;;8.53;97.45;99590.70;106684;1293;141222;-59
2022/11/04 01:58:04;;;;;;;12.90;6.50;;;;;;;8.52;97.48;99588.10;106711;1302;22117;-58
2022/11/04 02:00:31;;;;;;;12.70;6.40;;;;;;;8.52;97.47;99589.34;106817;1301;22209;-58
2022/11/04 02:03:07;;;;;;;16.00;7.40;;;;;;;8.51;97.42;99584.61;106733;1301;138709;-59
2022/11/04 02:05:35;;;;;;;10.40;6.10;;;;;;;8.53;97.37;99583.77;106751;1297;22085;-59
2022/11/04 02:08:02;;;;;;;;;;;;;;;8.54;97.27;99582.05;106670;1302;139071;-58
2022/11/04 02:10:29;;;;;;;11.20;5.90;;;;;;;8.54;97.42;99581.29;106755;1302;22660;-58
2022/11/04 02:12:57;;;;;;;10.10;6.50;;;;;;;8.54;97.35;99574.17;106701;1291;138432;-58
2022/11/04 02:15:39;;;;;;;10.70;7.10;;;;;;;8.56;97.19;99577.52;106830;1302;22268;-58
2022/11/04 02:18:19;;;;;;;7.30;5.80;;;;;;;8.58;97.12;99583.37;106772;1295;22140;-58
2022/11/04 02:21:09;;;;;;;13.00;7.60;;;;;;;8.56;97.07;99582.74;106665;1296;139856;-58
2022/11/04 02:24:00;;;;;;;13.20;6.90;;;;;;;8.55;97.01;99582.67;106406;1306;22316;-58
2022/11/04 02:26:45;;;;;;;11.70;7.30;;;;;;;8.54;96.86;99581.61;106341;1300;138531;-58
2022/11/04 02:29:37;;;;;;;8.50;5.50;;;;;;;8.53;96.96;99580.51;106422;1308;23156;-59
2022/11/04 02:32:25;;;;;;;17.20;5.80;;;;;;;8.52;96.75;99576.58;106222;1306;139025;-59
2022/11/04 02:34:58;;;;;;;12.00;7.00;;;;;;;8.50;96.81;99575.92;106421;1307;23202;-59
2022/11/04 02:37:36;;;;;;;19.30;5.90;;;;;;;8.49;96.75;99570.20;106377;1291;139620;-59
2022/11/04 02:40:15;;;;;;;9.70;6.70;;;;;;;8.50;96.85;99568.69;106413;1307;22310;-57
2022/11/04 02:42:51;;;;;;;12.60;7.80;;;;;;;8.50;96.76;99567.39;106328;1307;138482;-59
2022/11/04 02:45:21;;;;;;;14.20;7.10;;;;;;;8.52;96.76;99568.05;106381;1299;22341;-59
2022/11/04 02:47:50;;;;;;;8.90;5.80;;;;;;;8.53;96.86;99564.38;106463;1307;22372;-59
2022/11/04 02:50:24;;;;;;;8.50;5.90;;;;;;;8.55;96.78;99560.95;106261;1307;138612;-59
2022/11/04 02:53:04;;;;;;;16.30;6.70;;;;;;;8.58;96.94;99564.32;106432;1306;22332;-59
2022/11/04 02:55:35;;;;;;;8.80;6.50;;;;;;;8.61;96.87;99563.72;106212;1302;139386;-59
2022/11/04 02:58:04;;;;;;;7.90;6.40;;;;;;;8.62;96.63;99566.79;106377;1306;22280;-59
2022/11/04 03:00:31;;;;;;;12.70;6.90;;;;;;;8.61;96.39;99563.93;106400;1302;22335;-59
2022/11/04 03:03:03;;;;;;;;;;;;;;;8.60;96.33;99564.79;106532;1295;137809;-59
2022/11/04 03:05:32;;;;;;;11.80;6.90;;;;;;;8.58;96.20;99564.48;106708;1302;22186;-60
2022/11/04 03:08:08;;;;;;;16.50;5.90;;;;;;;8.55;96.18;99570.98;106558;1302;138531;-59
2022/11/04 03:10:37;;;;;;;10.60;7.40;;;;;;;8.53;95.97;99569.31;106767;1302;22139;-59
2022/11/04 03:13:15;;;;;;;12.50;6.90;;;;;;;8.50;96.19;99572.06;106532;1302;138256;-59
2022/11/04 03:15:53;;;;;;;14.80;7.00;;;;;;;8.48;96.12;99571.70;106649;1296;22148;-59
2022/11/04 03:18:32;;;;;;;11.90;6.30;;;;;;;8.46;96.14;99569.98;106738;1297;22315;-60
2022/11/04 03:21:01;;;;;;;9.10;6.20;;;;;;;8.43;96.04;99564.41;106653;1302;138120;-59
2022/11/04 03:23:27;;;;;;;12.80;6.50;;;;;;;8.44;95.83;99571.50;106749;1300;22148;-59
2022/11/04 03:25:57;;;;;;;;;;;;;;;8.41;95.87;99568.63;106678;1287;139831;-59
2022/11/04 03:28:30;;;;;;;13.70;6.30;;;;;;;8.39;95.99;99566.83;106746;1301;22796;-59
2022/11/04 03:30:58;;;;;;;9.80;5.70;;;;;;;8.38;96.04;99571.73;106553;1297;138105;-59
2022/11/04 03:33:38;;;;;;;10.10;6.10;;;;;;;8.37;96.09;99574.84;106704;1302;22148;-59
2022/11/04 03:36:07;;;;;;;11.60;6.60;;;;;;;8.38;96.10;99575.98;106737;1295;22289;-59
2022/11/04 03:38:35;;;;;;;17.90;5.50;;;;;;;8.36;95.95;99575.10;106678;1302;138911;-59
2022/11/04 03:41:02;;;;;;;14.90;6.60;;;;;;;8.34;95.87;99568.92;106723;1302;22144;-59
2022/11/04 03:43:29;;;;;;;12.30;6.30;;;;;;;8.33;95.95;99570.15;106557;1298;140225;-59
2022/11/04 03:45:55;;;;;;;;;;;;;;;8.35;96.14;99566.82;106764;1302;23038;-59
2022/11/04 03:48:22;;;;;;;12.50;5.20;;;;;;;8.36;96.05;99568.96;106793;1301;22206;-59
2022/11/04 03:50:50;;;;;;;8.60;6.00;;;;;;;8.34;96.02;99561.63;106634;1302;138408;-59
2022/11/04 03:53:21;;;;;;;9.40;5.70;;;;;;;8.37;96.08;99563.81;106831;1302;22226;-59
2022/11/04 03:56:19;;;;;;;14.30;7.20;;;;;;;8.37;95.93;99557.02;105402;1294;138609;-58
2022/11/04 03:58:49;;;;;;;17.10;8.20;;;;;;;8.42;95.95;99558.63;102330;1286;22529;-58
2022/11/04 04:01:25;;;;;;;12.60;7.00;;;;;;;8.39;95.53;99563.08;106367;1294;138601;-59
2022/11/04 04:03:56;;;;;;;11.20;6.40;;;;;;;8.33;95.30;99567.60;106784;1302;22246;-59
2022/11/04 04:06:29;;;;;;;9.10;6.00;;;;;;;8.31;95.56;99566.98;106674;1302;22214;-59
2022/11/04 04:09:01;;;;;;;15.70;7.60;;;;;;;8.31;95.49;99564.40;106615;1295;138075;-59
2022/11/04 04:11:40;;;;;;;9.90;6.60;;;;;;;8.29;95.57;99561.22;106553;1307;22097;-59
2022/11/04 04:14:38;;;;;;;9.00;5.70;;;;;;;8.31;95.47;99565.49;106591;1302;139090;-59
2022/11/04 04:17:19;;;;;;;13.10;7.20;;;;;;;8.32;95.43;99567.95;106625;1296;22200;-60
2022/11/04 04:19:50;;;;;;;10.30;6.70;;;;;;;8.33;95.41;99569.73;106527;1303;140006;-59
2022/11/04 04:22:21;;;;;;;16.40;6.70;;;;;;;8.33;95.31;99568.14;106591;1302;22169;-59
2022/11/04 04:27:36;;;;;;;13.00;6.30;;;;;;;8.34;95.27;99578.04;106830;1279;22900;-59
2022/11/04 04:30:13;;;;;;;;;;;;;;;8.30;95.21;99574.38;106730;1302;23121;-60
2022/11/04 04:33:02;;;;;;;9.60;6.40;;;;;;;8.30;95.05;99580.86;106690;1302;124511;-59
2022/11/04 04:35:41;;;;;;;13.00;6.10;;;;;;;8.29;95.26;99577.75;106673;1302;22217;-60
2022/11/04 04:47:18;;;;;;;11.60;6.90;;;;;;;8.30;95.18;99583.73;106767;1302;22126;-59
2022/11/04 04:49:52;;;;;;;28.60;17.40;;;;;;;8.30;95.11;99581.95;106547;1302;137972;-61
2022/11/04 04:52:19;;;;;;;15.20;9.20;;;;;;;8.30;95.06;99580.55;106856;1300;22497;-62
2022/11/04 04:54:46;;;;;;;13.70;9.30;;;;;;;8.30;94.98;99583.34;106608;1298;138090;-61
2022/11/04 04:57:13;;;;;;;;;;;;;;;8.30;94.93;99585.52;106870;1286;22365;-61
2022/11/04 04:59:39;;;;;;;12.70;8.00;;;;;;;8.30;94.98;99588.46;106765;1302;22406;-61
2022/11/04 05:02:06;;;;;;;;;;;;;;;8.32;95.09;99586.62;106693;1278;139215;-61
2022/11/04 05:04:33;;;;;;;9.60;7.00;;;;;;;8.34;94.99;99582.71;106792;1294;22109;-62
2022/11/04 05:07:00;;;;;;;12.20;7.30;;;;;;;8.34;94.79;99582.38;106682;1302;139017;-61
2022/11/04 05:09:27;;;;;;;9.10;7.70;;;;;;;8.31;94.61;99585.95;106793;1302;22110;-61
2022/11/04 05:11:53;;;;;;;13.90;6.80;;;;;;;8.30;94.72;99590.64;106771;1302;22230;-61
2022/11/04 05:14:20;;;;;;;;;;;;;;;8.31;94.76;99588.99;106719;1302;139225;-61
2022/11/04 05:16:47;;;;;;;9.40;7.10;;;;;;;8.33;94.78;99587.79;106825;1301;22123;-61
2022/11/04 05:19:14;;;;;;;12.00;7.10;;;;;;;8.32;94.70;99585.77;106696;1293;138029;-62
2022/11/04 05:21:40;;;;;;;;;;;;;;;8.32;94.65;99592.17;106790;1301;22363;-61
2022/11/04 05:24:07;;;;;;;13.20;6.80;;;;;;;8.32;94.67;99594.73;106810;1285;22393;-61
2022/11/04 05:26:34;;;;;;;;;;;;;;;8.32;94.56;99597.06;106683;1294;139587;-61
2022/11/04 05:29:00;;;;;;;16.40;8.80;;;;;;;8.33;94.59;99605.33;106789;1287;22155;-61
2022/11/04 05:31:29;;;;;;;;;;;;;;;8.32;94.62;99608.46;106669;1294;138567;-60
2022/11/04 05:33:57;;;;;;;13.80;8.00;;;;;;;8.31;94.57;99606.83;106675;1302;22325;-60
2022/11/04 05:36:24;;;;;;;13.50;8.20;;;;;;;8.29;94.60;99609.83;106759;1302;22133;-60
2022/11/04 05:38:51;;;;;;;;;;;;;;;8.30;94.86;99613.70;106663;1302;139199;-61
2022/11/04 05:41:24;;;;;;;14.80;7.30;;;;;;;8.32;94.86;99616.86;106710;1277;23366;-60
2022/11/04 05:43:56;;;;;;;11.20;7.30;;;;;;;8.29;94.85;99613.91;106630;1303;139143;-60
2022/11/04 05:46:23;;;;;;;13.10;8.10;;;;;;;8.30;94.82;99623.59;106743;1285;22218;-60
2022/11/04 05:48:49;;;;;;;10.50;7.40;;;;;;;8.30;94.76;99622.43;106621;1302;138275;-60
2022/11/04 05:51:17;;;;;;;;;;;;;;;8.31;94.89;99623.70;106813;1293;23133;-61
2022/11/04 05:53:44;;;;;;;12.40;7.80;;;;;;;8.32;94.90;99623.29;106760;1302;22189;-60
2022/11/04 05:56:10;;;;;;;13.10;7.70;;;;;;;8.30;94.60;99625.05;104802;1279;137920;-58
2022/11/04 05:58:37;;;;;;;;;;;;;;;8.26;94.45;99627.56;102400;1286;22500;-57
2022/11/04 06:01:22;;;;;;;15.30;8.60;;;;;;;8.21;94.35;99630.23;102275;1287;124893;-59
2022/11/04 06:03:50;;;;;;;16.60;8.40;;;;;;;8.18;94.65;99633.07;106454;1309;22222;-60
2022/11/04 06:06:17;;;;;;;13.80;8.70;;;;;;;8.18;94.71;99627.90;106816;1300;22133;-60
2022/11/04 06:08:44;;;;;;;;;;;;;;;8.11;94.40;99632.10;106723;1301;138983;-61
2022/11/04 06:11:11;;;;;;;14.50;9.10;;;;;;;8.04;94.52;99636.52;106812;1302;22267;-59
2022/11/04 06:13:37;;;;;;;;;;;;;;;7.98;94.59;99638.05;106053;1300;885422;-59
2022/11/04 06:17:02;;;;;;;13.70;8.70;;;;;;;7.94;94.82;99632.92;99588;1336;545333;-59
2022/11/04 06:19:29;;;;;;;12.00;8.30;;;;;;;7.90;95.00;99633.38;101581;1295;138456;-59
2022/11/04 06:21:56;;;;;;;;;;;;;;;7.90;95.20;99633.01;101287;1298;25378;-59
2022/11/04 06:24:23;;;;;;;13.50;9.40;;;;;;;7.86;95.09;99633.73;101476;1297;24282;-59
2022/11/04 06:26:49;;;;;;;;;;;;;;;7.81;95.25;99632.14;101495;1314;138183;-59
2022/11/04 06:29:16;;;;;;;12.10;8.80;;;;;;;7.76;95.39;99629.17;101535;1304;22735;-59
2022/11/04 06:31:43;;;;;;;;;;;;;;;7.74;95.57;99633.09;100950;1295;1005231;-59
2022/11/04 06:34:09;;;;;;;16.00;9.80;;;;;;;7.73;95.65;99632.89;101778;1294;25323;-59
2022/11/04 06:36:37;;;;;;;15.90;9.90;;;;;;;7.71;95.75;99632.47;105796;1302;22184;-60
2022/11/04 06:39:05;;;;;;;;;;;;;;;7.70;95.80;99632.94;106107;1312;23137;-60
2022/11/04 06:41:32;;;;;;;11.20;9.30;;;;;;;7.71;95.82;99634.42;106213;1310;22218;-59
2022/11/04 06:43:58;;;;;;;;;;;;;;;7.74;95.89;99635.09;106153;1310;138848;-61
2022/11/04 06:46:38;;;;;;;15.00;10.40;;;;;;;7.79;96.04;99633.46;106310;1295;22424;-61
2022/11/04 06:49:06;;;;;;;16.80;9.60;;;;;;;7.86;96.03;99635.99;106295;1309;138209;-60
2022/11/04 06:51:32;;;;;;;15.20;10.70;;;;;;;7.91;95.95;99633.78;106282;1310;22264;-61
2022/11/04 06:53:59;;;;;;;13.80;8.80;;;;;;;7.92;95.75;99632.66;106276;1310;22151;-61
2022/11/04 06:56:26;;;;;;;;;;;;;;;8.00;95.65;99631.87;106054;1297;137901;-59
2022/11/04 06:58:53;;;;;;;39.10;16.40;;;;;;;8.03;95.46;99628.30;106258;1310;22309;-59
2022/11/04 07:01:21;;;;;;;39.70;15.30;;;;;;;8.06;95.33;99628.80;106120;1294;137971;-59
2022/11/04 07:03:53;;;;;;;23.80;12.40;;;;;;;8.09;95.19;99626.29;106231;1303;22391;-60
2022/11/04 07:06:20;;;;;;;16.50;10.10;;;;;;;8.10;94.94;99630.76;106049;1310;22199;-59
2022/11/04 07:08:47;;;;;;;17.40;10.30;;;;;;;8.09;94.90;99633.14;106030;1303;139183;-59
2022/11/04 07:11:15;;;;;;;20.30;11.00;;;;;;;8.13;95.01;99635.13;106115;1312;22125;-59
2022/11/04 07:13:42;;;;;;;15.20;9.30;;;;;;;8.18;95.03;99637.17;106037;1312;139291;-59
2022/11/04 07:16:09;;;;;;;;;;;;;;;8.20;95.01;99636.05;106162;1312;22477;-59
2022/11/04 07:18:36;;;;;;;27.40;13.40;;;;;;;8.24;94.85;99635.73;106228;1308;22273;-60
2022/11/04 07:21:03;;;;;;;29.30;14.20;;;;;;;8.26;94.71;99632.52;106126;1311;22252;-60
2022/11/04 07:23:35;;;;;;;32.10;14.30;;;;;;;8.29;94.60;99632.25;106175;1309;22124;-60
2022/11/04 07:26:02;;;;;;;;;;;;;;;8.29;94.63;99620.66;105977;1305;138328;-60
2022/11/04 07:28:30;;;;;;;16.40;10.10;;;;;;;8.41;94.94;99627.27;106092;1303;22200;-61
2022/11/04 07:30:59;;;;;;;;;;;;;;;8.48;94.81;99628.93;105978;1312;139472;-60
2022/11/04 07:33:26;;;;;;;13.40;10.00;;;;;;;8.54;94.53;99629.41;106101;1304;22270;-60
2022/11/04 07:35:53;;;;;;;14.90;11.30;;;;;;;8.60;94.43;99626.88;104759;1303;22608;-60
2022/11/04 07:38:24;;;;;;;14.90;11.30;;;;;;;8.65;94.31;99623.44;105526;1311;138022;-61
2022/11/04 07:40:50;;;;;;;;;;;;;;;8.72;94.37;99618.29;106187;1312;22414;-60
2022/11/04 07:43:17;;;;;;;17.80;11.10;;;;;;;8.76;93.95;99620.88;106041;1312;125068;-61
2022/11/04 07:45:44;;;;;;;15.60;10.10;;;;;;;8.78;93.90;99620.65;106191;1312;22995;-59
2022/11/04 07:48:11;;;;;;;17.70;10.80;;;;;;;8.82;93.95;99618.53;106074;1312;22684;-60
2022/11/04 07:50:39;;;;;;;15.30;10.40;;;;;;;8.87;93.71;99618.77;106078;1304;138154;-61
2022/11/04 07:53:06;;;;;;;18.10;11.30;;;;;;;8.90;93.44;99613.24;106100;1312;22125;-60
2022/11/04 07:55:36;;;;;;;14.30;11.10;;;;;;;8.93;93.39;99614.44;105988;1312;138631;-60
2022/11/04 07:58:09;;;;;;;16.10;10.50;;;;;;;8.96;93.46;99612.58;106065;1312;22273;-60
2022/11/04 08:00:36;;;;;;;21.20;10.20;;;;;;;9.01;93.14;99609.53;106183;1312;23282;-60
2022/11/04 08:03:02;;;;;;;;;;;;;;;9.07;92.90;99609.85;105982;1312;137648;-60
2022/11/04 08:05:29;;;;;;;18.40;9.90;;;;;;;9.13;92.71;99612.98;106052;1310;22325;-60
2022/11/04 08:07:56;;;;;;;15.00;11.00;;;;;;;9.17;92.72;99614.58;106020;1302;138330;-61
2022/11/04 08:10:23;;;;;;;15.10;11.00;;;;;;;9.22;92.59;99615.43;106118;1312;22123;-60
2022/11/04 08:12:51;;;;;;;14.90;11.30;;;;;;;9.26;92.28;99617.07;106119;1293;137859;-60
2022/11/04 08:15:17;;;;;;;14.00;10.90;;;;;;;9.27;92.12;99614.58;106139;1312;22326;-60
2022/11/04 08:17:44;;;;;;;;;;;;;;;9.32;91.76;99622.00;106088;1311;23285;-60
2022/11/04 08:20:11;;;;;;;16.80;11.10;;;;;;;9.34;91.56;99617.85;106002;1312;124760;-60
2022/11/04 08:22:38;;;;;;;14.40;10.40;;;;;;;9.35;91.33;99616.24;106125;1303;22183;-60
2022/11/04 08:25:05;;;;;;;;;;;;;;;9.38;91.16;99616.77;105965;1304;138306;-60
2022/11/04 08:27:31;;;;;;;23.00;13.50;;;;;;;9.41;91.01;99615.83;106025;1312;22291;-60
2022/11/04 08:29:58;;;;;;;;;;;;;;;9.42;91.03;99624.34;105934;1313;22439;-60
2022/11/04 08:32:25;;;;;;;17.80;11.10;;;;;;;9.42;90.72;99625.64;106039;1305;123802;-60
2022/11/04 08:34:52;;;;;;;16.30;10.70;;;;;;;9.39;90.50;99623.14;106062;1312;22124;-60
2022/11/04 08:37:19;;;;;;;;;;;;;;;9.38;90.20;99625.69;105995;1312;138572;-60
2022/11/04 08:39:45;;;;;;;20.00;11.10;;;;;;;9.38;90.19;99625.19;106083;1297;22154;-60
2022/11/04 08:42:12;;;;;;;;;;;;;;;9.37;90.13;99621.44;106084;1306;22322;-61
2022/11/04 08:44:39;;;;;;;13.00;10.10;;;;;;;9.35;89.88;99616.69;106017;1307;124579;-61
2022/11/04 08:47:06;;;;;;;14.80;10.90;;;;;;;9.38;90.12;99615.41;106141;1312;22310;-60
2022/11/04 08:49:36;;;;;;;;;;;;;;;9.40;90.02;99617.23;105999;1312;137819;-60
2022/11/04 08:52:03;;;;;;;11.70;9.50;;;;;;;9.42;90.02;99620.27;106053;1312;22326;-61
2022/11/04 08:54:30;;;;;;;14.00;10.50;;;;;;;9.44;89.89;99618.84;106072;1311;22603;-60
2022/11/04 08:56:56;;;;;;;;;;;;;;;9.46;89.89;99617.83;106077;1309;138811;-61
2022/11/04 08:59:23;;;;;;;15.70;12.10;;;;;;;9.48;89.51;99616.27;106145;1311;22917;-61
2022/11/04 09:01:50;;;;;;;15.50;11.60;;;;;;;9.46;89.49;99621.52;105994;1309;139050;-61
2022/11/04 09:04:18;;;;;;;18.10;12.90;;;;;;;9.43;89.24;99618.11;106039;1312;22115;-61
2022/11/04 09:06:45;;;;;;;14.80;10.70;;;;;;;9.44;89.31;99620.34;106009;1310;138675;-60
2022/11/04 09:09:13;;;;;;;15.50;10.50;;;;;;;9.45;89.28;99619.66;106074;1308;22202;-61
2022/11/04 09:11:41;;;;;;;12.60;9.00;;;;;;;9.44;89.21;99618.50;106092;1303;23303;-61
2022/11/04 09:14:08;;;;;;;13.70;9.40;;;;;;;9.44;89.15;99617.63;105962;1312;138078;-61
2022/11/04 09:16:35;;;;;;;13.70;8.90;;;;;;;9.44;89.10;99615.50;106051;1312;23459;-61
2022/11/04 09:19:02;;;;;;;11.10;8.80;;;;;;;9.45;88.93;99616.44;105991;1312;139359;-60
2022/11/04 09:21:29;;;;;;;15.10;8.90;;;;;;;9.45;88.89;99616.40;106207;1312;22246;-61
2022/11/04 09:23:55;;;;;;;;;;;;;;;9.48;88.85;99622.42;106113;1312;22376;-61
2022/11/04 09:26:22;;;;;;;11.40;9.00;;;;;;;9.51;88.90;99617.15;105949;1312;125327;-61
2022/11/04 09:28:56;;;;;;;11.20;7.90;;;;;;;9.54;88.89;99614.61;106053;1311;22214;-61
2022/11/04 09:31:24;;;;;;;12.80;7.80;;;;;;;9.55;88.60;99612.58;105978;1312;139149;-61
2022/11/04 09:33:52;;;;;;;12.10;7.80;;;;;;;9.55;88.42;99612.14;106171;1288;22922;-61
2022/11/04 09:36:19;;;;;;;8.00;7.20;;;;;;;9.56;88.13;99618.23;106104;1312;22243;-60
2022/11/04 09:38:46;;;;;;;;;;;;;;;9.57;88.04;99616.90;106264;1308;137588;-60
2022/11/04 09:41:31;;;;;;;11.00;8.00;;;;;;;9.58;87.93;99613.49;106383;1308;22123;-61
2022/11/04 09:44:06;;;;;;;11.30;9.50;;;;;;;9.57;87.69;99613.48;106277;1308;140844;-61
2022/11/04 09:46:33;;;;;;;12.80;9.00;;;;;;;9.56;87.52;99607.92;106312;1303;22144;-61
2022/11/04 09:49:00;;;;;;;;;;;;;;;9.57;87.67;99606.62;106274;1309;138866;-60
2022/11/04 09:51:27;;;;;;;10.90;8.10;;;;;;;9.56;87.75;99605.51;106426;1301;22288;-60
2022/11/04 09:54:24;;;;;;;13.70;9.20;;;;;;;9.55;87.54;99605.48;106352;1308;22187;-61
2022/11/04 09:56:52;;;;;;;14.00;9.60;;;;;;;9.54;87.51;99608.30;106246;1303;139310;-60
2022/11/04 09:59:27;;;;;;;14.50;9.70;;;;;;;9.53;87.48;99609.10;106328;1308;22756;-60
2022/11/04 10:02:21;;;;;;;14.40;9.30;;;;;;;9.52;87.48;99609.81;106227;1309;138143;-60
2022/11/04 10:05:44;;;;;;;13.50;8.80;;;;;;;9.51;87.67;99614.66;105670;1300;22158;-60
2022/11/04 10:08:37;;;;;;;14.60;9.70;;;;;;;9.51;87.69;99611.27;105015;1320;139565;-60
2022/11/04 10:11:20;;;;;;;17.80;9.40;;;;;;;9.49;87.64;99610.10;104922;1323;22181;-60
2022/11/04 10:14:11;;;;;;;16.40;10.70;;;;;;;9.46;87.35;99610.54;104871;1320;138654;-60
2022/11/04 10:17:08;;;;;;;16.20;9.10;;;;;;;9.44;87.37;99609.52;105070;1319;22205;-60
2022/11/04 10:19:50;;;;;;;12.20;9.30;;;;;;;9.40;87.42;99604.23;104883;1320;138594;-60
2022/11/04 10:22:37;;;;;;;14.10;9.30;;;;;;;9.36;87.50;99602.92;105144;1320;22281;-60
2022/11/04 10:25:14;;;;;;;15.00;9.70;;;;;;;9.33;87.67;99601.64;105125;1320;140059;-60
2022/11/04 10:27:42;;;;;;;43.90;27.70;;;;;;;9.33;87.47;99604.40;105174;1319;22398;-60
2022/11/04 10:30:22;;;;;;;18.50;12.30;;;;;;;9.34;87.64;99601.05;104867;1323;22178;-62
2022/11/04 10:33:20;;;;;;;13.80;9.40;;;;;;;9.32;87.86;99599.82;104888;1320;138695;-63
2022/11/04 10:35:49;;;;;;;15.20;9.60;;;;;;;9.33;87.67;99601.43;104980;1321;22333;-62
2022/11/04 10:38:17;;;;;;;12.30;8.60;;;;;;;9.33;87.73;99598.63;104939;1312;139335;-61
2022/11/04 10:40:49;;;;;;;11.10;8.70;;;;;;;9.32;87.65;99592.96;105719;1314;22221;-61
2022/11/04 10:43:43;;;;;;;13.10;9.50;;;;;;;9.32;87.56;99586.94;106200;1301;138877;-61
2022/11/04 10:46:22;;;;;;;13.50;10.10;;;;;;;9.33;87.54;99584.13;106411;1295;24429;-61
2022/11/04 10:49:08;;;;;;;15.40;10.20;;;;;;;9.34;87.63;99582.29;106296;1308;138240;-61
2022/11/04 10:51:35;;;;;;;17.20;10.70;;;;;;;9.36;87.57;99579.94;106396;1294;23013;-61
2022/11/04 10:54:04;;;;;;;;;;;;;;;9.39;87.43;99581.91;106420;1308;22370;-61
2022/11/04 10:56:32;;;;;;;11.80;8.70;;;;;;;9.39;87.54;99581.69;106324;1308;124716;-61
2022/11/04 10:59:03;;;;;;;15.70;9.50;;;;;;;9.38;87.39;99580.82;106368;1309;23098;-61
2022/11/04 11:01:32;;;;;;;15.80;9.80;;;;;;;9.40;87.40;99577.64;106248;1299;138705;-61
2022/11/04 11:03:59;;;;;;;12.20;9.50;;;;;;;9.42;87.40;99574.08;106358;1300;22177;-61
2022/11/04 11:06:27;;;;;;;12.40;9.50;;;;;;;9.45;87.31;99571.41;106448;1284;22129;-61
2022/11/04 11:08:59;;;;;;;15.50;10.00;;;;;;;9.47;87.11;99569.11;106319;1294;138985;-61
2022/11/04 11:12:13;;;;;;;12.60;9.40;;;;;;;9.48;86.99;99569.29;106430;1291;22321;-61
2022/11/04 11:15:00;;;;;;;13.70;9.50;;;;;;;9.52;86.99;99564.00;106303;1309;137947;-61
2022/11/04 11:17:33;;;;;;;14.40;10.30;;;;;;;9.54;86.82;99561.95;106322;1292;22255;-61
2022/11/04 11:20:21;;;;;;;13.20;9.30;;;;;;;9.57;86.94;99559.71;106292;1308;140508;-61
2022/11/04 11:22:49;;;;;;;;;;;;;;;9.59;86.95;99561.92;106434;1291;22372;-61
2022/11/04 11:25:28;;;;;;;24.10;10.20;;;;;;;9.61;86.74;99558.41;106305;1298;125841;-61
2022/11/04 11:28:01;;;;;;;15.30;10.50;;;;;;;9.62;86.88;99555.40;106449;1308;22290;-61
2022/11/04 11:30:30;;;;;;;17.60;11.70;;;;;;;9.63;86.61;99557.31;106408;1307;22147;-61
2022/11/04 11:33:05;;;;;;;14.10;10.00;;;;;;;9.64;86.68;99558.73;106088;1300;138806;-61
2022/11/04 11:35:40;;;;;;;11.40;9.60;;;;;;;9.65;86.69;99556.30;106373;1309;22124;-61
2022/11/04 11:38:20;;;;;;;13.00;9.30;;;;;;;9.63;86.40;99553.40;106253;1308;138703;-61
2022/11/04 11:40:47;;;;;;;13.70;9.20;;;;;;;9.62;86.08;99561.14;106393;1309;22120;-61
2022/11/04 11:43:34;;;;;;;16.40;10.20;;;;;;;9.58;86.19;99552.88;106263;1308;140305;-61
2022/11/04 11:46:01;;;;;;;15.60;9.50;;;;;;;9.61;86.09;99558.91;106433;1306;22104;-61
2022/11/04 11:48:42;;;;;;;13.70;9.10;;;;;;;9.60;85.87;99558.09;106497;1308;22224;-61
2022/11/04 11:51:12;;;;;;;16.60;10.30;;;;;;;9.60;85.56;99560.30;106385;1306;22139;-61
2022/11/04 11:53:44;;;;;;;16.30;8.90;;;;;;;9.57;85.60;99558.02;106369;1309;22327;-61
2022/11/04 11:56:22;;;;;;;11.30;8.80;;;;;;;9.53;85.41;99556.23;106301;1300;138941;-61
2022/11/04 11:58:58;;;;;;;16.90;9.70;;;;;;;9.53;85.37;99558.02;106359;1300;22191;-61
2022/11/04 12:02:06;;;;;;;12.60;8.60;;;;;;;9.49;85.47;99554.36;106204;1307;139120;-61
2022/11/04 12:04:34;;;;;;;11.90;8.90;;;;;;;9.50;85.61;99552.30;106392;1309;22151;-61
2022/11/04 12:07:34;;;;;;;12.30;9.30;;;;;;;9.52;85.61;99544.91;106366;1296;139763;-61
2022/11/04 12:10:59;;;;;;;61.90;37.40;;;;;;;9.52;85.51;99542.58;106424;1308;22164;-60
2022/11/04 12:13:29;;;;;;;17.60;11.50;;;;;;;9.54;85.46;99545.75;105738;1315;139680;-61
2022/11/04 12:16:12;;;;;;;14.30;9.60;;;;;;;9.53;85.57;99549.49;105776;1312;22242;-61
2022/11/04 12:18:51;;;;;;;14.20;8.80;;;;;;;9.52;85.15;99543.39;105846;1297;22264;-61
2022/11/04 12:21:32;;;;;;;13.10;8.50;;;;;;;9.52;84.91;99547.30;105864;1313;22326;-61
2022/11/04 12:24:01;;;;;;;11.10;8.40;;;;;;;9.46;84.15;99541.23;105525;1318;23225;-61
2022/11/04 12:26:46;;;;;;;10.90;8.00;;;;;;;9.41;84.19;99542.08;105712;1317;138095;-61